Las horas y fechas están en horario UTC
Sumar 1 hora en el horario de Invierno y 2 horas en el de Verano

Informes METAR cercanos

 

LEZL - Sevilla (civ/Mil, Spain
Distance from station: NNE 24km
Actualización: 09/08/2020 21:30
Despejado
Despejado
 Viento del SO
Viento: SO 20 km/h
Temperatura: 31°C
Heat Index: 33°C
Rocío: 20°C
Humedad: 52%
Barómetro: 1011 hPa
Resumen: Despejado
Visibility: greater than 10 km
2020/08/09 19:30 LEZL 091930Z 22011KT CAVOK 31/20 Q1011 NOSIG
LEMO - Moron (sp-Usafb), Spain
Distance from station: E 38km
Actualización: 09/08/2020 21:30
Despejado
Despejado
 Viento del OSO
Viento: OSO 19 km/h
Temperatura: 29°C
Heat Index: 31°C
Rocío: 21°C
Humedad: 62%
Barómetro: 1011 hPa
Resumen: Despejado
Visibility: greater than 10 km
2020/08/09 19:30 LEMO 091930Z 24010KT CAVOK 29/21 Q1011 NOSIG
LEJR - Jerez (civ/Mil), Spain
Distance from station: S 53km
Actualización: 09/08/2020 21:30
Despejado
Despejado
 Viento del OSO
Viento: OSO 13 km/h
Temperatura: 27°C
Heat Index: 29°C
Rocío: 21°C
Humedad: 70%
Barómetro: 1012 hPa
Resumen: Despejado
Visibility: greater than 10 km
2020/08/09 19:30 LEJR 091930Z 25007KT 210V270 CAVOK 27/21 Q1012
 
LERT - Rota Naval Stati, Spain
Distance from station: SSO 71km
Actualización: 09/08/2020 21:30
Few Clouds
Few Clouds
 Viento del O
Viento: O 13 km/h
Temperatura: 24°C
Rocío: 23°C
Humedad: 94%
Barómetro: 1012 hPa
Clouds: Few Clouds
Visibility: 10 km
Cloud details: Few Clouds 183 m
2020/08/09 19:30 LERT 091930Z 27007KT 240V300 9999 FEW006 24/23 Q1012 NOSIG
LEBA - Cordoba Airport, Spain
Distance from station: ENE 128km
Actualización: 09/08/2020 21:30
Despejado
Despejado
 Viento del OSO
Viento: OSO 9 km/h
Temperatura: 34°C
Rocío: 14°C
Humedad: 30%
Barómetro: 1010 hPa
Resumen: Despejado
Visibility: greater than 10 km
2020/08/09 19:30 LEBA 091930Z AUTO 24005KT CAVOK 34/14 Q1010
LXGB - Gibraltar (civ/M, Gibraltar
Distance from station: SSE 137km
Actualización: 09/08/2020 21:24
Despejado
Despejado
 Viento del NE
Viento: NE 7 km/h
Temperatura: 26°C
Rocío: 23°C
Humedad: 84%
Barómetro: 1012 hPa
Resumen: Despejado
Visibility: greater than 10 km
2020/08/09 19:24 LXGB 091924Z 05004KT CAVOK 26/23 Q1012 NOSIG RMK BLU BLU
 
LEMG - Malaga (civ/Mil), Spain
Distance from station: ESE 150km
Actualización: 09/08/2020 21:30
Despejado
Despejado
 Viento del E
Viento: E 6 km/h
Temperatura: 28°C
Heat Index: 30°C
Rocío: 21°C
Humedad: 66%
Barómetro: 1012 hPa
Resumen: Despejado
Visibility: greater than 10 km
2020/08/09 19:30 LEMG 091930Z 10003KT 070V130 CAVOK 28/21 Q1012 NOSIG
GMTT - Tangier/Boukhalf, Morocco
Distance from station: S 169km
Actualización: 09/08/2020 21:00
Despejado
Despejado
 Viento del varies
Viento: varies 13 km/h
Temperatura: 27°C
Heat Index: 28°C
Rocío: 18°C
Humedad: 58%
Barómetro: 1011 hPa
Resumen: Despejado
Visibility: greater than 10 km
2020/08/09 19:00 GMTT 091900Z VRB07KT CAVOK 27/18 Q1011 NOSIG
LPFR - Faro, Portugal
Distance from station: O 172km
Actualización: 09/08/2020 21:30
Despejado
Despejado
 Viento del ONO
Viento: ONO 15 km/h
Temperatura: 29°C
Heat Index: 29°C
Rocío: 16°C
Humedad: 45%
Barómetro: 1011 hPa
Resumen: Despejado
Visibility: greater than 10 km
2020/08/09 19:30 LPFR 091930Z 29008KT CAVOK 29/16 Q1011
 
LPBJ - Beja (por/Ger-Af, Portugal
Distance from station: ONO 192km
Actualización: 09/08/2020 21:00
Despejado
Despejado
 Viento del ONO
Viento: ONO 20 km/h
Temperatura: 30°C
Rocío: 13°C
Humedad: 35%
Barómetro: 1013 hPa
Resumen: Despejado
Visibility: greater than 10 km
2020/08/09 19:00 LPBJ 091900Z 30011KT CAVOK 30/13 Q1013
LEBZ - Talavera Ab/Bada, Spain
Distance from station: NNO 194km
Actualización: 09/08/2020 21:00
Despejado
Despejado
 Viento del ONO
Viento: ONO 17 km/h
Temperatura: 33°C
Rocío: 10°C
Humedad: 24%
Barómetro: 1011 hPa
Resumen: Despejado
Visibility: greater than 10 km
2020/08/09 19:00 LEBZ 091900Z 30009KT 260V320 CAVOK 33/10 Q1011
LEMD - Madrid/Barajas, Spain
Distance from station: NE 415km
Actualización: 09/08/2020 21:30
Despejado
Despejado
 Viento del O
Viento: O 7 km/h
Temperatura: 35°C
Rocío: 7°C
Humedad: 18%
Barómetro: 1013 hPa
Resumen: Despejado
Visibility: greater than 10 km
2020/08/09 19:30 LEMD 091930Z 28004KT CAVOK 35/07 Q1013 NOSIG